Time;durP1;ratioP1;P1;durP2;ratioP2;P2;SDS_P1;SDS_P2;PMS_P1;PMS_P2;Temp;Humidity;BMP_temperature;BMP_pressure;BME280_temperature;BME280_humidity;BME280_pressure;Samples;Min_cycle;Max_cycle;Signal;HPM_P1;HPM_P2
2023/12/01 00:00:52;;;;;;;16.70;11.27;;;3.90;92.70;;;;;;5094108;28;20256;-72
2023/12/01 00:03:20;;;;;;;16.15;10.65;;;3.80;93.10;;;;;;5094337;28;20274;-72
2023/12/01 00:05:47;;;;;;;14.23;11.90;;;3.90;92.90;;;;;;5094348;28;20220;-72
2023/12/01 00:08:14;;;;;;;13.60;12.13;;;3.90;92.90;;;;;;5093996;28;20233;-72
2023/12/01 00:10:41;;;;;;;15.40;12.18;;;3.90;92.80;;;;;;5091988;28;20708;-72
2023/12/01 00:13:08;;;;;;;14.20;11.20;;;3.90;92.80;;;;;;5094086;28;20205;-74
2023/12/01 00:15:34;;;;;;;11.85;10.57;;;3.90;92.80;;;;;;5094203;28;20223;-73
2023/12/01 00:18:01;;;;;;;12.02;9.93;;;3.90;92.70;;;;;;5094242;28;20697;-76
2023/12/01 00:20:30;;;;;;;13.00;10.80;;;3.90;92.90;;;;;;5094159;28;20242;-72
2023/12/01 00:22:58;;;;;;;14.00;11.55;;;4.00;92.90;;;;;;5094100;28;20208;-72
2023/12/01 00:25:25;;;;;;;14.55;11.73;;;4.00;92.90;;;;;;5093853;28;20280;-72
2023/12/01 00:27:52;;;;;;;13.15;11.05;;;4.00;92.80;;;;;;5093655;28;20196;-72
2023/12/01 00:30:19;;;;;;;15.60;11.50;;;3.90;92.70;;;;;;5092418;28;20225;-72
2023/12/01 00:32:46;;;;;;;12.60;10.77;;;3.90;92.70;;;;;;5094106;28;20197;-72
2023/12/01 00:35:13;;;;;;;33.00;17.65;;;3.90;92.80;;;;;;5093563;28;20189;-72
2023/12/01 00:37:43;;;;;;;13.18;10.07;;;3.90;92.90;;;;;;5093874;28;20270;-72
2023/12/01 00:40:11;;;;;;;12.75;9.32;;;3.90;93.20;;;;;;5092286;28;20191;-73
2023/12/01 00:42:38;;;;;;;11.55;9.80;;;3.90;92.80;;;;;;5093432;28;20256;-72
2023/12/01 00:45:05;;;;;;;11.70;9.80;;;3.90;92.80;;;;;;5093586;28;20236;-71
2023/12/01 00:47:32;;;;;;;11.82;10.57;;;3.90;92.70;;;;;;5093801;28;20604;-72
2023/12/01 00:49:59;;;;;;;11.43;9.60;;;3.80;92.90;;;;;;5093767;28;20228;-72
2023/12/01 00:52:26;;;;;;;12.52;10.07;;;3.90;93.00;;;;;;5093332;28;20664;-72
2023/12/01 00:54:55;;;;;;;12.32;10.45;;;3.90;92.80;;;;;;5093671;28;20604;-72
2023/12/01 00:57:22;;;;;;;11.50;9.73;;;3.90;92.90;;;;;;5093888;28;20189;-72
2023/12/01 00:59:49;;;;;;;14.02;11.85;;;3.90;92.70;;;;;;5093999;28;20582;-72
2023/12/01 01:02:16;;;;;;;14.55;11.88;;;3.90;92.60;;;;;;5093114;28;20248;-72
2023/12/01 01:04:43;;;;;;;15.65;10.88;;;3.90;92.60;;;;;;5093605;28;20193;-72
2023/12/01 01:07:10;;;;;;;13.23;10.70;;;3.90;92.70;;;;;;5093603;28;20221;-72
2023/12/01 01:09:37;;;;;;;18.13;12.30;;;3.80;92.80;;;;;;5093645;28;20594;-72
2023/12/01 01:12:06;;;;;;;14.95;11.93;;;3.80;92.90;;;;;;5093691;28;20193;-72
2023/12/01 01:14:33;;;;;;;12.95;10.70;;;3.90;92.90;;;;;;5093607;28;20189;-72
2023/12/01 01:17:00;;;;;;;15.15;11.70;;;3.80;92.60;;;;;;5093489;28;20593;-71
2023/12/01 01:19:27;;;;;;;16.33;12.50;;;3.80;92.80;;;;;;5093152;28;20194;-72
2023/12/01 01:21:54;;;;;;;17.40;12.73;;;3.80;92.80;;;;;;5093431;28;20244;-72
2023/12/01 01:24:21;;;;;;;14.27;12.02;;;3.80;93.10;;;;;;5093506;28;20304;-72
2023/12/01 01:26:48;;;;;;;15.32;12.05;;;3.80;93.10;;;;;;5093092;28;20247;-74
2023/12/01 01:29:17;;;;;;;14.70;11.10;;;3.80;93.30;;;;;;5093083;28;20648;-72
2023/12/01 01:31:43;;;;;;;13.68;11.57;;;3.80;93.20;;;;;;5093231;28;20285;-72
2023/12/01 01:34:10;;;;;;;15.77;10.55;;;3.80;93.10;;;;;;5092864;28;20616;-71
2023/12/01 01:36:37;;;;;;;13.07;11.48;;;3.80;93.20;;;;;;5093340;28;20225;-72
2023/12/01 01:39:05;;;;;;;13.77;10.60;;;3.80;93.20;;;;;;5093369;28;20671;-72
2023/12/01 01:41:31;;;;;;;12.05;9.85;;;3.80;93.20;;;;;;5092967;28;20658;-72
2023/12/01 01:43:58;;;;;;;12.83;10.43;;;3.80;93.30;;;;;;5092920;28;20205;-72
2023/12/01 01:46:26;;;;;;;17.00;11.23;;;3.80;93.10;;;;;;5092894;28;20514;-72
2023/12/01 01:48:55;;;;;;;13.02;10.73;;;3.90;93.10;;;;;;5093227;28;20247;-72
2023/12/01 01:51:22;;;;;;;13.05;10.35;;;3.90;92.90;;;;;;5092794;28;20232;-72
2023/12/01 01:53:50;;;;;;;13.70;10.63;;;3.80;92.90;;;;;;5092828;28;20236;-72
2023/12/01 01:56:18;;;;;;;15.50;11.43;;;3.80;93.10;;;;;;5094889;28;20250;-72
2023/12/01 01:58:45;;;;;;;14.57;11.07;;;3.80;93.10;;;;;;5096896;28;20228;-72
2023/12/01 02:01:12;;;;;;;11.48;9.75;;;3.80;93.30;;;;;;5096508;28;20228;-72
2023/12/01 02:03:42;;;;;;;15.80;10.38;;;3.80;93.50;;;;;;5096651;28;20244;-73
2023/12/01 02:06:09;;;;;;;15.23;10.85;;;3.70;93.50;;;;;;5096357;28;20193;-73
2023/12/01 02:08:36;;;;;;;13.95;10.50;;;3.80;93.60;;;;;;5096261;28;20228;-72
2023/12/01 02:11:03;;;;;;;12.00;9.80;;;3.80;93.80;;;;;;5096248;28;20280;-71
2023/12/01 02:13:30;;;;;;;15.32;10.88;;;3.80;93.80;;;;;;5096264;28;20244;-72
2023/12/01 02:15:59;;;;;;;11.82;9.68;;;3.80;93.90;;;;;;5096517;28;20203;-72
2023/12/01 02:18:27;;;;;;;10.63;9.52;;;3.90;93.60;;;;;;5096527;28;20669;-72
2023/12/01 02:20:57;;;;;;;13.18;10.57;;;3.90;93.70;;;;;;5096134;28;20205;-73
2023/12/01 02:23:26;;;;;;;10.93;9.57;;;3.90;93.70;;;;;;5096209;28;20701;-72
2023/12/01 02:25:53;;;;;;;14.45;11.27;;;3.90;93.70;;;;;;5096234;28;20185;-72
2023/12/01 02:28:21;;;;;;;12.23;10.55;;;3.90;93.60;;;;;;5096311;28;20194;-72
2023/12/01 02:30:50;;;;;;;13.57;10.93;;;3.90;93.70;;;;;;5095123;28;20598;-71
2023/12/01 02:33:17;;;;;;;11.88;9.13;;;3.90;93.60;;;;;;5095453;28;20196;-72
2023/12/01 02:35:48;;;;;;;11.68;9.57;;;3.90;93.60;;;;;;5094082;28;20284;-72
2023/12/01 02:38:15;;;;;;;11.02;9.68;;;3.90;93.60;;;;;;5094787;28;20217;-72
2023/12/01 02:40:43;;;;;;;10.63;8.55;;;3.90;93.50;;;;;;5096072;28;20185;-72
2023/12/01 02:43:11;;;;;;;11.48;9.80;;;3.90;93.50;;;;;;5095990;28;20573;-72
2023/12/01 02:45:38;;;;;;;21.98;11.10;;;3.90;93.60;;;;;;5096020;28;20182;-71
2023/12/01 02:48:06;;;;;;;13.70;10.70;;;3.90;94.00;;;;;;5095597;28;20217;-72
2023/12/01 02:50:33;;;;;;;13.63;9.70;;;3.90;93.50;;;;;;5095857;28;20224;-72
2023/12/01 02:53:01;;;;;;;13.80;9.77;;;3.90;93.50;;;;;;5095795;28;20201;-72
2023/12/01 02:55:28;;;;;;;10.80;9.20;;;4.00;93.50;;;;;;5095846;28;20189;-72
2023/12/01 02:57:56;;;;;;;12.82;10.30;;;3.90;93.30;;;;;;5095399;28;20221;-71
2023/12/01 03:00:24;;;;;;;12.63;10.15;;;3.90;93.40;;;;;;5095235;28;20312;-72
2023/12/01 03:02:52;;;;;;;12.77;10.32;;;3.90;93.40;;;;;;5095606;28;20227;-72
2023/12/01 03:05:19;;;;;;;13.80;10.20;;;3.90;93.50;;;;;;5095503;28;20221;-72
2023/12/01 03:07:47;;;;;;;11.88;9.35;;;3.90;93.50;;;;;;5095474;28;20582;-72
2023/12/01 03:10:14;;;;;;;13.30;10.82;;;3.80;93.50;;;;;;5095230;28;20640;-72
2023/12/01 03:12:43;;;;;;;13.68;11.95;;;3.90;93.50;;;;;;5095367;28;20284;-72
2023/12/01 03:15:13;;;;;;;15.00;10.88;;;3.90;93.60;;;;;;5095048;28;20225;-72
2023/12/01 03:17:40;;;;;;;14.50;11.10;;;3.90;93.60;;;;;;5095039;28;20178;-72
2023/12/01 03:20:09;;;;;;;12.95;10.52;;;4.00;93.50;;;;;;5095302;28;20197;-72
2023/12/01 03:22:38;;;;;;;16.48;11.55;;;4.00;93.50;;;;;;5095204;28;20235;-72
2023/12/01 03:25:09;;;;;;;14.77;11.05;;;4.00;93.50;;;;;;5095134;28;20212;-72
2023/12/01 03:27:39;;;;;;;13.82;10.38;;;4.00;93.40;;;;;;5094893;28;20653;-72
2023/12/01 03:30:14;;;;;;;13.77;10.50;;;4.00;93.40;;;;;;5095568;28;20170;-72
2023/12/01 03:32:45;;;;;;;12.90;10.32;;;4.00;93.50;;;;;;5095086;28;20276;-71
2023/12/01 03:35:13;;;;;;;13.52;10.43;;;4.00;93.50;;;;;;5094770;28;20183;-72
2023/12/01 03:37:40;;;;;;;12.93;10.55;;;4.00;93.50;;;;;;5094669;28;20654;-72
2023/12/01 03:40:09;;;;;;;12.73;10.05;;;4.00;93.30;;;;;;5094284;28;20221;-72
2023/12/01 03:42:38;;;;;;;12.70;9.90;;;3.90;93.30;;;;;;5094485;28;20243;-72
2023/12/01 03:45:07;;;;;;;13.38;11.18;;;3.90;93.40;;;;;;5094701;28;20244;-71
2023/12/01 03:47:36;;;;;;;16.27;11.90;;;3.90;93.40;;;;;;5094662;28;20594;-72
2023/12/01 03:50:03;;;;;;;17.45;11.02;;;3.90;93.30;;;;;;5094392;28;20668;-72
2023/12/01 03:52:30;;;;;;;16.35;13.13;;;3.90;93.30;;;;;;5094673;28;20571;-72
2023/12/01 03:54:58;;;;;;;16.65;12.70;;;3.90;93.40;;;;;;5094665;28;20276;-71
2023/12/01 03:57:27;;;;;;;15.35;11.30;;;3.90;93.40;;;;;;5094593;28;20221;-72
2023/12/01 03:59:54;;;;;;;13.13;9.82;;;3.80;93.60;;;;;;5094144;28;20239;-72
2023/12/01 04:02:22;;;;;;;14.18;12.05;;;3.80;93.80;;;;;;5094799;28;20264;-71
2023/12/01 04:04:51;;;;;;;13.30;10.20;;;3.90;93.90;;;;;;5094068;28;20210;-72
2023/12/01 04:07:18;;;;;;;14.38;11.35;;;3.80;93.70;;;;;;5094453;28;20224;-72
2023/12/01 04:09:44;;;;;;;14.98;8.98;;;3.80;93.70;;;;;;5094419;28;20538;-72
2023/12/01 04:12:11;;;;;;;10.50;8.98;;;3.80;93.80;;;;;;5093935;28;20232;-71
2023/12/01 04:14:38;;;;;;;14.10;9.40;;;3.80;94.00;;;;;;5094260;28;20225;-71
2023/12/01 04:17:10;;;;;;;12.45;9.45;;;3.80;94.20;;;;;;5094346;28;20268;-71
2023/12/01 04:19:38;;;;;;;14.65;11.70;;;3.80;94.30;;;;;;5093836;28;20178;-72
2023/12/01 04:22:07;;;;;;;13.82;11.40;;;3.80;94.40;;;;;;5093799;28;20188;-71
2023/12/01 04:24:34;;;;;;;12.90;10.48;;;3.90;94.40;;;;;;5093734;28;20292;-72
2023/12/01 04:27:01;;;;;;;14.85;10.43;;;3.90;94.30;;;;;;5093748;28;20213;-72
2023/12/01 04:29:29;;;;;;;17.63;12.80;;;3.90;94.30;;;;;;5094050;28;20223;-72
2023/12/01 04:31:56;;;;;;;13.23;10.52;;;3.90;94.40;;;;;;5094008;28;20600;-72
2023/12/01 04:34:26;;;;;;;14.18;10.45;;;3.90;94.40;;;;;;5093640;28;20231;-72
2023/12/01 04:36:54;;;;;;;14.85;10.88;;;3.90;94.30;;;;;;5093963;28;20189;-72
2023/12/01 04:39:22;;;;;;;14.00;11.60;;;3.90;94.20;;;;;;5093932;28;20265;-71
2023/12/01 04:41:51;;;;;;;11.70;10.45;;;3.90;94.20;;;;;;5093824;28;20217;-71
2023/12/01 04:44:18;;;;;;;14.25;10.68;;;3.90;94.30;;;;;;5093435;28;20271;-72
2023/12/01 04:46:45;;;;;;;12.05;9.13;;;3.90;94.20;;;;;;5093900;28;20292;-71
2023/12/01 04:49:12;;;;;;;12.27;10.23;;;3.90;94.20;;;;;;5093792;28;20221;-71
2023/12/01 04:51:39;;;;;;;11.55;9.50;;;4.00;94.20;;;;;;5093761;28;20185;-71
2023/12/01 04:54:06;;;;;;;13.80;10.02;;;3.90;94.10;;;;;;5093735;28;20596;-71
2023/12/01 04:56:34;;;;;;;12.65;9.48;;;4.00;94.10;;;;;;5093667;28;20187;-72
2023/12/01 04:59:03;;;;;;;15.70;9.50;;;4.00;94.10;;;;;;5093725;28;20243;-72
2023/12/01 05:01:35;;;;;;;11.25;9.90;;;4.00;94.10;;;;;;5093685;28;20217;-72
2023/12/01 05:04:02;;;;;;;12.73;9.88;;;4.00;94.10;;;;;;5093285;28;20202;-72
2023/12/01 05:06:29;;;;;;;10.48;8.90;;;4.00;93.90;;;;;;5093760;28;20201;-72
2023/12/01 05:08:56;;;;;;;11.82;8.98;;;4.00;94.00;;;;;;5093853;28;20230;-71
2023/12/01 05:11:23;;;;;;;11.85;9.20;;;4.00;94.00;;;;;;5093704;28;20265;-72
2023/12/01 05:13:51;;;;;;;15.40;11.70;;;4.00;94.00;;;;;;5093348;28;20231;-71
2023/12/01 05:16:19;;;;;;;13.07;9.40;;;4.00;94.10;;;;;;5093652;28;20217;-72
2023/12/01 05:18:45;;;;;;;11.90;9.27;;;4.00;94.10;;;;;;5093587;28;20224;-73
2023/12/01 05:21:12;;;;;;;10.02;9.02;;;4.00;94.20;;;;;;5093271;28;20652;-71
2023/12/01 05:23:39;;;;;;;11.18;9.25;;;4.00;94.00;;;;;;5093419;28;20182;-71
2023/12/01 05:26:09;;;;;;;12.98;9.77;;;4.00;93.90;;;;;;5092856;28;20285;-74
2023/12/01 05:28:38;;;;;;;13.57;9.45;;;4.00;93.90;;;;;;5093221;28;20174;-72
2023/12/01 05:31:07;;;;;;;13.50;10.43;;;4.00;93.90;;;;;;5095344;28;20217;-72
2023/12/01 05:33:38;;;;;;;15.52;10.18;;;4.00;93.90;;;;;;5097112;28;20182;-72
2023/12/01 05:36:08;;;;;;;13.13;9.70;;;4.00;93.90;;;;;;5097740;28;20173;-72
2023/12/01 05:38:35;;;;;;;13.23;11.38;;;4.00;93.90;;;;;;5096015;28;20189;-71
2023/12/01 05:41:02;;;;;;;13.13;10.00;;;4.00;93.90;;;;;;5097058;28;20231;-74
2023/12/01 05:43:29;;;;;;;12.68;10.23;;;4.00;93.90;;;;;;5095891;28;20729;-72
2023/12/01 05:45:56;;;;;;;13.45;10.10;;;4.00;94.00;;;;;;5095683;28;20306;-71
2023/12/01 05:48:25;;;;;;;15.70;10.55;;;4.00;94.00;;;;;;5095531;28;20272;-72
2023/12/01 05:50:52;;;;;;;13.73;10.65;;;4.00;93.90;;;;;;5095884;28;20211;-73
2023/12/01 05:53:19;;;;;;;13.45;10.30;;;4.00;93.80;;;;;;5091392;28;20290;-71
2023/12/01 05:55:46;;;;;;;13.30;10.35;;;4.00;93.80;;;;;;5075700;28;20723;-75
2023/12/01 05:58:14;;;;;;;11.95;9.55;;;4.00;93.90;;;;;;5075981;28;20221;-72
2023/12/01 06:00:41;;;;;;;14.52;11.02;;;4.00;93.90;;;;;;5075481;28;20700;-74
2023/12/01 06:03:09;;;;;;;12.68;9.85;;;4.00;93.90;;;;;;5091516;28;20509;-73
2023/12/01 06:05:39;;;;;;;18.05;11.75;;;4.00;93.90;;;;;;5094282;28;20308;-71
2023/12/01 06:08:08;;;;;;;12.98;9.85;;;4.00;93.80;;;;;;5095215;28;20186;-74
2023/12/01 06:10:35;;;;;;;11.43;9.40;;;4.00;93.90;;;;;;5095711;28;20193;-73
2023/12/01 06:13:03;;;;;;;13.40;9.77;;;4.00;93.80;;;;;;5095322;28;20276;-74
2023/12/01 06:15:30;;;;;;;14.50;10.50;;;4.00;93.80;;;;;;5090731;28;20186;-72
2023/12/01 06:17:58;;;;;;;15.27;11.02;;;4.00;93.90;;;;;;5075509;28;20194;-73
2023/12/01 06:20:26;;;;;;;13.00;10.80;;;4.10;93.90;;;;;;5086420;28;20243;-72
2023/12/01 06:22:56;;;;;;;13.90;9.82;;;4.00;93.80;;;;;;5095486;28;20640;-72
2023/12/01 06:25:27;;;;;;;13.85;10.57;;;4.10;93.90;;;;;;5094246;28;20557;-72
2023/12/01 06:27:56;;;;;;;15.07;10.68;;;4.10;93.90;;;;;;5087323;28;20186;-73
2023/12/01 06:30:24;;;;;;;12.48;10.25;;;4.10;93.90;;;;;;5074779;28;20902;-73
2023/12/01 06:32:51;;;;;;;14.15;10.40;;;4.10;93.90;;;;;;5090361;28;20220;-72
2023/12/01 06:35:21;;;;;;;13.00;10.25;;;4.00;94.20;;;;;;5094408;28;20228;-72
2023/12/01 06:37:48;;;;;;;13.68;11.30;;;4.10;93.90;;;;;;5092268;28;20181;-72
2023/12/01 06:40:18;;;;;;;13.57;11.18;;;4.10;93.90;;;;;;5095242;28;20268;-72
2023/12/01 06:42:46;;;;;;;14.82;12.55;;;4.10;94.40;;;;;;5092771;28;20244;-73
2023/12/01 06:45:15;;;;;;;14.52;12.50;;;4.10;94.00;;;;;;5093538;28;20286;-73
2023/12/01 06:47:46;;;;;;;14.73;12.10;;;4.10;94.10;;;;;;5087058;28;20285;-77
2023/12/01 06:50:14;;;;;;;11.90;10.60;;;4.10;94.00;;;;;;5088952;28;20211;-74
2023/12/01 06:52:42;;;;;;;13.95;11.77;;;4.10;94.00;;;;;;5092618;28;20214;-72
2023/12/01 06:55:10;;;;;;;15.40;11.20;;;4.10;94.00;;;;;;5092460;28;20598;-72
2023/12/01 06:57:39;;;;;;;18.70;11.38;;;4.10;93.90;;;;;;5094373;28;20221;-73
2023/12/01 07:00:08;;;;;;;20.77;12.25;;;4.20;93.90;;;;;;5094314;28;20221;-73
2023/12/01 07:02:37;;;;;;;16.88;12.23;;;4.10;93.80;;;;;;5094050;28;20182;-73
2023/12/01 07:05:05;;;;;;;17.17;11.50;;;4.10;93.90;;;;;;5094697;28;20209;-72
2023/12/01 07:07:32;;;;;;;14.15;11.40;;;4.10;94.00;;;;;;5093615;28;20543;-74
2023/12/01 07:10:00;;;;;;;12.32;11.02;;;4.10;94.00;;;;;;5093712;28;20235;-72
2023/12/01 07:12:32;;;;;;;14.30;11.40;;;4.10;94.10;;;;;;5094330;28;20193;-72
2023/12/01 07:15:02;;;;;;;20.27;13.25;;;4.10;94.10;;;;;;5094296;28;20198;-75
2023/12/01 07:17:29;;;;;;;17.17;13.60;;;4.10;94.10;;;;;;5094780;28;20596;-72
2023/12/01 07:19:56;;;;;;;19.40;15.27;;;4.10;94.10;;;;;;5094301;28;20587;-72
2023/12/01 07:22:24;;;;;;;19.63;14.82;;;4.10;94.10;;;;;;5094079;28;20194;-73
2023/12/01 07:24:52;;;;;;;20.08;14.55;;;4.10;94.10;;;;;;5093752;28;20218;-73
2023/12/01 07:27:25;;;;;;;16.85;13.35;;;4.10;94.10;;;;;;5093856;28;20644;-72
2023/12/01 07:29:52;;;;;;;16.25;13.80;;;4.10;94.10;;;;;;5093784;28;20182;-72
2023/12/01 07:32:20;;;;;;;19.27;15.60;;;4.20;93.80;;;;;;5086901;28;20199;-74
2023/12/01 07:34:48;;;;;;;17.38;13.35;;;4.10;93.50;;;;;;5092169;28;20224;-72
2023/12/01 07:37:14;;;;;;;18.08;15.00;;;4.10;93.60;;;;;;5093989;28;20221;-72
2023/12/01 07:39:41;;;;;;;19.05;14.90;;;4.10;93.80;;;;;;5094335;28;20644;-72
2023/12/01 07:42:08;;;;;;;21.05;16.45;;;4.10;93.90;;;;;;5094237;28;20221;-72
2023/12/01 07:44:35;;;;;;;16.23;13.68;;;4.10;94.00;;;;;;5094469;28;20241;-73
2023/12/01 07:47:04;;;;;;;22.67;16.77;;;4.10;94.20;;;;;;5094484;28;20248;-72
2023/12/01 07:49:33;;;;;;;19.23;15.52;;;4.10;94.10;;;;;;5094407;28;20188;-72
2023/12/01 07:52:01;;;;;;;19.65;14.77;;;4.10;94.20;;;;;;5094073;28;20280;-72
2023/12/01 07:54:28;;;;;;;18.15;14.25;;;4.10;94.20;;;;;;5094032;28;20189;-72
2023/12/01 07:56:56;;;;;;;19.63;14.80;;;4.10;94.30;;;;;;5094362;28;20243;-72
2023/12/01 07:59:23;;;;;;;16.92;12.15;;;4.20;94.30;;;;;;5094295;28;20233;-72
2023/12/01 08:01:49;;;;;;;16.77;13.30;;;4.20;94.10;;;;;;5094273;28;20308;-72
2023/12/01 08:04:16;;;;;;;18.95;13.73;;;4.20;94.20;;;;;;5094180;28;20244;-72
2023/12/01 08:06:45;;;;;;;17.88;13.85;;;4.30;94.20;;;;;;5093798;28;20304;-72
2023/12/01 08:09:16;;;;;;;16.30;13.02;;;4.30;94.00;;;;;;5094229;28;20229;-72
2023/12/01 08:11:43;;;;;;;16.27;13.02;;;4.30;93.90;;;;;;5094087;28;20230;-72
2023/12/01 08:14:11;;;;;;;13.98;11.63;;;4.30;93.90;;;;;;5094252;28;20194;-72
2023/12/01 08:16:38;;;;;;;15.57;13.35;;;4.30;93.90;;;;;;5094173;28;20201;-72
2023/12/01 08:19:06;;;;;;;16.85;13.45;;;4.30;93.90;;;;;;5093628;28;20221;-72
2023/12/01 08:21:33;;;;;;;18.83;12.40;;;4.30;93.80;;;;;;5093587;28;20201;-72
2023/12/01 08:24:01;;;;;;;18.00;13.52;;;4.30;93.90;;;;;;5093541;28;20247;-72
2023/12/01 08:26:28;;;;;;;17.13;14.40;;;4.40;93.90;;;;;;5093814;28;20245;-73
2023/12/01 08:28:55;;;;;;;19.45;15.10;;;4.40;93.90;;;;;;5093442;28;20225;-72
2023/12/01 08:31:22;;;;;;;18.92;14.25;;;4.40;93.80;;;;;;5093860;28;20273;-72
2023/12/01 08:33:50;;;;;;;17.88;13.00;;;4.40;93.90;;;;;;5093782;28;20278;-72
2023/12/01 08:36:16;;;;;;;16.75;12.52;;;4.40;93.70;;;;;;5093568;28;20248;-72
2023/12/01 08:38:43;;;;;;;14.52;12.25;;;4.50;93.80;;;;;;5093622;28;20276;-72
2023/12/01 08:41:12;;;;;;;14.45;12.07;;;4.50;93.70;;;;;;5093256;28;20236;-73
2023/12/01 08:43:38;;;;;;;15.00;12.80;;;4.60;93.60;;;;;;5093547;28;20325;-72
2023/12/01 08:46:06;;;;;;;14.15;12.20;;;4.60;93.60;;;;;;5093063;28;20750;-73
2023/12/01 08:48:33;;;;;;;15.35;12.32;;;4.70;93.50;;;;;;5093446;28;20262;-72
2023/12/01 08:51:00;;;;;;;15.32;12.43;;;4.60;93.30;;;;;;5093521;28;20225;-72
2023/12/01 08:53:28;;;;;;;17.00;12.65;;;4.60;93.30;;;;;;5093481;28;20228;-72
2023/12/01 08:55:56;;;;;;;13.77;11.70;;;4.60;93.40;;;;;;5093096;28;20197;-72
2023/12/01 08:58:25;;;;;;;13.38;10.63;;;4.70;93.30;;;;;;5093136;28;20190;-72
2023/12/01 09:00:52;;;;;;;13.45;9.38;;;4.70;93.30;;;;;;5092924;28;20224;-72
2023/12/01 09:03:18;;;;;;;17.60;10.60;;;4.80;93.20;;;;;;5093400;28;20217;-72
2023/12/01 09:05:45;;;;;;;12.95;11.32;;;4.80;93.30;;;;;;5096470;28;20301;-72
2023/12/01 09:08:12;;;;;;;18.13;13.23;;;4.80;93.20;;;;;;5097611;28;20587;-73
2023/12/01 09:10:39;;;;;;;17.48;15.48;;;4.80;93.40;;;;;;5097676;28;20618;-72
2023/12/01 09:13:06;;;;;;;17.13;13.95;;;4.80;93.40;;;;;;5097451;28;20232;-72
2023/12/01 09:15:34;;;;;;;16.95;14.05;;;4.90;93.30;;;;;;5097413;28;20232;-72
2023/12/01 09:18:01;;;;;;;18.55;14.30;;;4.90;93.20;;;;;;5097110;28;20281;-72
2023/12/01 09:20:28;;;;;;;13.63;10.82;;;5.00;93.30;;;;;;5097414;28;20192;-72
2023/12/01 09:22:55;;;;;;;14.50;12.75;;;5.00;93.20;;;;;;5097071;28;20227;-72
2023/12/01 09:25:22;;;;;;;18.63;13.07;;;5.00;93.10;;;;;;5097121;28;20292;-72
2023/12/01 09:27:49;;;;;;;22.23;12.68;;;5.10;93.20;;;;;;5097191;28;20216;-72
2023/12/01 09:30:17;;;;;;;17.88;13.85;;;5.10;93.10;;;;;;5097197;28;20193;-72
2023/12/01 09:32:45;;;;;;;15.20;12.05;;;5.20;93.10;;;;;;5096783;28;20186;-72
2023/12/01 09:35:12;;;;;;;14.25;12.75;;;5.20;93.10;;;;;;5097034;28;20225;-72
2023/12/01 09:37:39;;;;;;;15.13;11.85;;;5.20;93.10;;;;;;5096970;28;20197;-72
2023/12/01 09:40:07;;;;;;;15.15;12.45;;;5.20;92.80;;;;;;5096659;28;20225;-72
2023/12/01 09:42:36;;;;;;;16.25;12.77;;;5.20;92.60;;;;;;5096854;28;20190;-72
2023/12/01 09:45:03;;;;;;;16.00;12.85;;;5.20;92.50;;;;;;5096818;28;20186;-72
2023/12/01 09:47:32;;;;;;;11.98;10.77;;;5.20;92.50;;;;;;5096497;28;20229;-72
2023/12/01 09:50:01;;;;;;;16.05;12.82;;;5.20;92.50;;;;;;5096739;28;20614;-72
2023/12/01 09:52:28;;;;;;;17.48;11.90;;;5.30;92.40;;;;;;5096684;28;20194;-72
2023/12/01 09:54:55;;;;;;;12.68;10.90;;;5.20;92.10;;;;;;5096359;28;20236;-73
2023/12/01 09:57:22;;;;;;;12.20;10.43;;;5.30;92.20;;;;;;5096683;28;20190;-72
2023/12/01 09:59:49;;;;;;;13.93;11.32;;;5.30;92.00;;;;;;5096613;28;20570;-72
2023/12/01 10:02:16;;;;;;;13.07;10.85;;;5.40;91.90;;;;;;5096717;28;20572;-72
2023/12/01 10:04:45;;;;;;;13.00;10.70;;;5.40;91.80;;;;;;5096414;28;20196;-72
2023/12/01 10:07:13;;;;;;;13.73;12.32;;;5.40;92.00;;;;;;5096418;28;20259;-73
2023/12/01 10:09:40;;;;;;;20.77;13.50;;;5.50;92.10;;;;;;5096107;28;20228;-72
2023/12/01 10:12:09;;;;;;;22.02;15.27;;;5.50;92.10;;;;;;5096274;28;20232;-73
2023/12/01 10:14:36;;;;;;;18.77;14.50;;;5.60;92.10;;;;;;5096334;28;20232;-73
2023/12/01 10:17:04;;;;;;;39.90;22.92;;;5.60;92.20;;;;;;5095675;28;20232;-72
2023/12/01 10:19:44;;;;;;;20.80;16.15;;;5.60;92.10;;;;;;5096242;28;20185;-72
2023/12/01 10:22:13;;;;;;;17.45;14.50;;;5.60;92.10;;;;;;5095911;28;20173;-72
2023/12/01 10:24:41;;;;;;;16.42;13.70;;;5.60;91.90;;;;;;5096233;28;20185;-72
2023/12/01 10:27:08;;;;;;;16.73;13.27;;;5.60;91.90;;;;;;5095945;28;20213;-72
2023/12/01 10:29:38;;;;;;;14.43;12.38;;;5.60;91.70;;;;;;5095680;28;20276;-73
2023/12/01 10:32:11;;;;;;;16.00;13.02;;;5.60;91.90;;;;;;5096150;28;20596;-72
2023/12/01 10:34:38;;;;;;;14.48;10.90;;;5.60;92.00;;;;;;5095996;28;20598;-72
2023/12/01 10:37:05;;;;;;;15.27;11.60;;;5.60;91.70;;;;;;5095882;28;20185;-74
2023/12/01 10:39:34;;;;;;;16.67;11.63;;;5.60;91.70;;;;;;5095753;28;20243;-72
2023/12/01 10:42:01;;;;;;;14.18;11.13;;;5.60;91.60;;;;;;5095756;28;20270;-73
2023/12/01 10:44:28;;;;;;;11.82;10.10;;;5.70;91.30;;;;;;5095698;28;20225;-73
2023/12/01 10:46:57;;;;;;;15.35;11.02;;;5.70;91.20;;;;;;5095223;28;20308;-72
2023/12/01 10:49:24;;;;;;;13.02;10.52;;;5.60;91.20;;;;;;5095681;28;20225;-72
2023/12/01 10:51:52;;;;;;;18.55;12.50;;;5.60;91.30;;;;;;5095633;28;20319;-72
2023/12/01 10:54:23;;;;;;;14.95;11.63;;;5.60;91.30;;;;;;5095547;28;20185;-72
2023/12/01 10:57:01;;;;;;;16.10;11.75;;;5.50;91.20;;;;;;5095263;28;20192;-73
2023/12/01 10:59:30;;;;;;;14.82;11.05;;;5.50;91.30;;;;;;5095856;28;20182;-72
2023/12/01 11:02:00;;;;;;;16.63;13.05;;;5.40;91.60;;;;;;5095063;28;20324;-72
2023/12/01 11:04:27;;;;;;;16.92;12.63;;;5.40;91.80;;;;;;5095443;28;20531;-72
2023/12/01 11:07:13;;;;;;;13.82;12.23;;;5.40;91.90;;;;;;5095196;28;20307;-71
2023/12/01 11:09:53;;;;;;;17.80;14.02;;;5.50;92.20;;;;;;5095288;28;20223;-72
2023/12/01 11:12:29;;;;;;;14.55;11.00;;;5.50;92.10;;;;;;5095225;28;20264;-72
2023/12/01 11:15:05;;;;;;;18.58;13.05;;;5.50;92.00;;;;;;5095148;28;20286;-72
2023/12/01 11:17:32;;;;;;;14.38;12.48;;;5.50;92.10;;;;;;5095353;28;20231;-72
2023/12/01 11:19:59;;;;;;;14.90;12.30;;;5.60;92.20;;;;;;5094992;28;20189;-72
2023/12/01 11:22:27;;;;;;;17.30;14.23;;;5.60;92.20;;;;;;5094933;28;20190;-71
2023/12/01 11:24:56;;;;;;;17.98;14.02;;;5.60;91.90;;;;;;5094938;28;20262;-72
2023/12/01 11:27:26;;;;;;;21.88;16.55;;;5.60;91.90;;;;;;5094105;28;20323;-72
2023/12/01 11:30:06;;;;;;;18.17;15.57;;;5.50;91.50;;;;;;5094336;28;20178;-73
2023/12/01 11:32:34;;;;;;;25.33;16.70;;;5.50;91.60;;;;;;5094830;28;20213;-72
2023/12/01 11:35:06;;;;;;;19.50;15.25;;;5.50;91.60;;;;;;5094743;28;20524;-72
2023/12/01 11:38:03;;;;;;;22.00;15.68;;;5.50;91.40;;;;;;5095063;28;20193;-72
2023/12/01 11:40:40;;;;;;;19.20;15.45;;;5.40;91.60;;;;;;5094344;28;20200;-72
2023/12/01 11:43:11;;;;;;;15.77;12.40;;;5.40;91.90;;;;;;5094550;28;20185;-72
2023/12/01 11:45:37;;;;;;;15.07;11.52;;;5.40;91.80;;;;;;5094488;28;20662;-71
2023/12/01 11:48:08;;;;;;;20.83;12.55;;;5.40;91.80;;;;;;5094454;28;20186;-71
2023/12/01 11:50:38;;;;;;;20.60;13.65;;;5.40;91.90;;;;;;5094482;28;20189;-72
2023/12/01 11:53:06;;;;;;;26.58;16.17;;;5.40;92.00;;;;;;5093790;28;20209;-72
2023/12/01 11:55:34;;;;;;;27.95;20.10;;;5.40;92.00;;;;;;5093770;28;20193;-72
2023/12/01 11:58:01;;;;;;;22.98;17.95;;;5.40;92.00;;;;;;5093654;28;20190;-73
2023/12/01 12:00:34;;;;;;;29.55;17.00;;;5.40;92.00;;;;;;5093928;28;20253;-72
2023/12/01 12:03:00;;;;;;;21.23;15.13;;;5.40;92.20;;;;;;5093623;28;20632;-72
2023/12/01 12:05:28;;;;;;;21.15;15.10;;;5.40;92.10;;;;;;5093824;28;20233;-72
2023/12/01 12:07:56;;;;;;;19.20;12.45;;;5.40;92.00;;;;;;5093499;28;20213;-72
2023/12/01 12:10:23;;;;;;;17.50;12.40;;;5.40;91.80;;;;;;5093600;28;20229;-71
2023/12/01 12:12:50;;;;;;;12.20;8.95;;;5.40;91.70;;;;;;5093745;28;20221;-72
2023/12/01 12:15:17;;;;;;;16.23;9.73;;;5.40;91.50;;;;;;5093734;28;20194;-72
2023/12/01 12:17:45;;;;;;;13.68;9.40;;;5.40;91.40;;;;;;5093634;28;20243;-71
2023/12/01 12:20:12;;;;;;;12.93;10.00;;;5.40;91.40;;;;;;5093236;28;20232;-72
2023/12/01 12:22:40;;;;;;;11.65;9.10;;;5.40;91.20;;;;;;5093496;28;20225;-72
2023/12/01 12:25:10;;;;;;;9.32;6.88;;;5.40;91.00;;;;;;5093255;28;20192;-72
2023/12/01 12:27:39;;;;;;;9.02;6.40;;;5.40;90.70;;;;;;5093543;28;20206;-72
2023/12/01 12:30:09;;;;;;;8.50;6.05;;;5.40;90.80;;;;;;5093489;28;20185;-72
2023/12/01 12:32:36;;;;;;;8.65;6.20;;;5.40;90.60;;;;;;5093439;28;20644;-74
2023/12/01 12:35:06;;;;;;;10.38;7.30;;;5.40;90.60;;;;;;5093316;28;20194;-72
2023/12/01 12:37:33;;;;;;;10.65;7.60;;;5.40;90.50;;;;;;5093420;28;20620;-72
2023/12/01 12:40:00;;;;;;;43.78;19.73;;;5.30;90.20;;;;;;5092709;28;20249;-72
2023/12/01 12:42:27;;;;;;;16.75;10.25;;;5.30;90.20;;;;;;5093142;28;20198;-71